Latest Weather Observations for Cloncurry

IDQ60801

Issued at 1:32 pm EST Friday 6 March 2015 (issued every 30 minutes, with the page automatically refreshed every 10 minutes)

About weather observations | Map of weather stations | Latest weather observations for QLD | Other Formats
Station Details ID: 029141 Name: CLONCURRY AIRPORT Lat: -20.67 Lon: 140.50 Height: 186.0 m
Data from the previous 72 hours. | See also: Recent months at Cloncurry
Date/Time
EST
Temp
°C
App
Temp
°C
Dew
Point
Rel
Hum
%
Delta-T
°C
Wind Press
QNH
hPa
Press
MSL
hPa
Rain
since 9 am
mm
Dir
 
Spd
km/h
Gust
km/h
Spd
kts
Gust
kts
06/01:30pm 38.5 35.2 6.3 14 18.1 S 13 20 7 11 1005.7 1004.4 0.0
06/01:00pm 37.9 33.7 5.8 14 17.8 SSE 17 28 9 15 1006.4 1005.1 0.0
06/12:30pm 37.4 33.3 6.4 15 17.3 S 17 26 9 14 1007.1 1005.8 0.0
06/12:00pm 37.6 33.0 6.6 15 17.4 S 20 32 11 17 1007.7 1006.4 0.0
06/11:30am 36.4 31.6 5.6 15 16.9 SSE 20 35 11 19 1008.3 1007.0 0.0
06/11:00am 36.6 30.7 5.8 15 17.0 S 26 33 14 18 1008.8 1007.5 0.0
06/10:30am 34.5 29.2 5.0 16 15.9 S 22 30 12 16 1008.9 1007.6 0.0
06/10:00am 34.1 28.0 4.7 16 15.7 S 26 35 14 19 1009.1 1007.8 0.0
06/09:30am 33.5 27.5 5.1 17 15.2 S 26 35 14 19 1009.0 1007.7 0.0
06/09:00am 32.0 25.9 4.7 18 14.4 S 26 35 14 19 1009.0 1007.7 0.0
06/08:30am 31.2 24.7 4.9 19 13.9 S 28 37 15 20 1008.7 1007.4 0.0
06/08:00am 30.7 24.7 5.2 20 13.5 S 26 35 14 19 1008.6 1007.3 0.0
06/07:30am 30.5 25.0 5.7 21 13.2 SSW 24 33 13 18 1008.4 1007.1 0.0
06/07:00am 30.4 25.4 6.3 22 13.0 S 22 32 12 17 1008.1 1006.8 0.0
06/06:30am 30.4 26.1 7.0 23 12.7 SSW 19 22 10 12 1007.7 1006.4 0.0
06/06:00am 30.9 27.6 8.0 24 12.7 S 15 20 8 11 1007.4 1006.1 0.0
06/05:30am 31.2 27.3 8.8 25 12.6 S 19 24 10 13 1007.2 1005.9 0.0
06/05:00am 31.7 28.5 9.8 26 12.6 SSE 17 24 9 13 1007.2 1005.9 0.0
06/04:30am 32.3 29.3 12.0 29 12.1 SSE 19 24 10 13 1006.9 1005.6 0.0
06/04:00am 32.0 29.7 14.6 34 10.8 S 20 28 11 15 1006.6 1005.3 0.0
06/03:30am 31.5 30.5 16.6 40 9.4 SW 17 20 9 11 1006.4 1005.1 0.0
06/03:00am 31.4 31.2 17.7 44 8.8 SW 15 19 8 10 1006.4 1005.1 0.0
06/02:30am 31.2 31.5 17.1 42 9.0 SW 11 15 6 8 1006.6 1005.3 0.0
06/02:00am 31.7 30.2 17.6 43 9.1 SW 22 32 12 17 1006.7 1005.4 0.0
06/01:30am 31.1 31.4 17.8 45 8.6 SSE 13 17 7 9 1007.4 1006.1 0.0
06/01:00am 31.0 33.1 19.4 50 7.7 W 7 15 4 8 1008.3 1007.0 0.0
06/12:30am 30.3 31.7 18.7 50 7.6 W 9 11 5 6 1008.4 1007.1 0.0
06/12:00am 32.2 34.0 18.8 45 8.8 W 7 11 4 6 1008.7 1007.4 0.0
 
Date/Time
EST
Temp
°C
App
Temp
°C
Dew
Point
Rel
Hum
%
Delta-T
°C
Wind Press
QNH
hPa
Press
MSL
hPa
Rain
since 9 am
mm
Dir
 
Spd
km/h
Gust
km/h
Spd
kts
Gust
kts
05/11:30pm 32.3 33.8 17.7 41 9.4 W 6 7 3 4 1008.5 1007.2 0.0
05/11:00pm 32.2 33.5 18.4 44 9.0 W 9 13 5 7 1008.4 1007.1 0.0
05/10:30pm 31.3 32.6 17.6 44 8.8 W 7 13 4 7 1007.6 1006.3 0.0
05/10:00pm 31.7 31.4 16.4 39 9.7 W 13 19 7 10 1007.1 1005.8 0.0
05/09:31pm 30.3 24.4 11.3 31 11.1 SSW 33 54 18 29 1007.6 1006.3 0.0
05/09:30pm 31.2 25.2 12.1 31 11.3 SSW 35 54 19 29 1007.6 1006.3 0.0
05/09:24pm 34.5 31.0 13.3 27 12.9 S 24 50 13 27 1008.1 1006.8 0.0
05/09:00pm 35.7 33.9 14.4 28 13.3 SSW 17 26 9 14 1007.1 1005.8 0.0
05/08:30pm 35.1 35.4 13.3 27 13.3 E 4 6 2 3 1006.4 1005.1 0.0
05/08:00pm 36.2 36.0 13.0 24 14.2 E 6 7 3 4 1005.8 1004.5 0.0
05/07:30pm 36.6 35.7 12.7 23 14.6 E 9 11 5 6 1005.6 1004.3 0.0
05/07:00pm 37.8 35.5 13.1 23 15.3 E 17 22 9 12 1005.3 1004.0 0.0
05/06:30pm 38.7 36.1 13.8 22 15.5 E 20 28 11 15 1005.0 1003.7 0.0
05/06:00pm 39.2 37.5 16.2 26 14.9 E 20 30 11 16 1005.0 1003.7 0.0
05/05:30pm 39.2 37.9 14.9 23 15.4 ESE 15 26 8 14 1005.1 1003.8 0.0
05/05:00pm 39.6 36.8 13.2 21 16.4 ESE 20 33 11 18 1005.1 1003.8 0.0
05/04:30pm 40.6 38.1 14.0 21 16.8 ESE 20 32 11 17 1005.3 1004.0 0.0
05/04:00pm 40.3 40.0 14.5 22 16.4 N 9 28 5 15 1005.6 1004.3 0.0
05/03:30pm 39.6 39.1 13.9 22 16.1 N 9 15 5 8 1006.0 1004.7 0.0
05/03:00pm 38.9 38.5 14.0 23 15.6 E 9 15 5 8 1006.7 1005.4 0.0
05/02:30pm 39.1 38.9 14.8 23 15.4 NNE 9 15 5 8 1007.3 1006.0 0.0
05/02:00pm 38.5 37.4 14.3 23 15.2 NNE 13 20 7 11 1007.8 1006.5 0.0
05/01:30pm 37.6 37.2 14.2 25 14.6 E 9 17 5 9 1008.4 1007.1 0.0
05/01:00pm 37.7 37.2 14.9 26 14.4 NE 11 20 6 11 1009.1 1007.8 0.0
05/12:30pm 37.2 37.3 15.6 27 13.8 N 9 19 5 10 1009.6 1008.3 0.0
05/12:00pm 36.1 36.9 15.8 30 12.9 N 6 13 3 7 1010.0 1008.7 0.0
05/11:30am 35.8 36.5 17.0 32 12.2 N 9 15 5 8 1010.7 1009.4 0.0
05/11:00am 34.5 34.7 17.7 37 10.9 N 13 17 7 9 1011.1 1009.8 0.0
05/10:30am 33.4 33.2 17.5 38 10.3 N 15 20 8 11 1011.4 1010.1 0.0
05/10:00am 32.5 33.2 17.9 41 9.5 N 11 13 6 7 1011.7 1010.4 0.0
05/09:30am 31.4 32.4 17.7 44 8.8 N 9 13 5 7 1011.7 1010.4 0.0
05/09:00am 30.3 30.9 16.7 44 8.6 N 9 15 5 8 1011.5 1010.2 0.0
05/08:30am 29.6 28.5 15.3 41 8.8 N 15 19 8 10 1011.1 1009.8 0.0
05/08:00am 29.4 28.9 14.8 41 9.0 ESE 11 15 6 8 1010.8 1009.5 0.0
05/07:30am 28.3 27.5 15.2 44 8.0 ESE 13 17 7 9 1010.3 1009.0 0.0
05/07:00am 26.9 27.1 14.6 46 7.5 ESE 7 9 4 5 1009.9 1008.6 0.0
05/06:30am 26.2 26.2 14.3 48 7.1 ESE 7 9 4 5 1009.4 1008.1 0.0
05/06:00am 27.0 26.6 15.1 48 7.3 ESE 11 13 6 7 1009.2 1007.9 0.0
05/05:30am 26.4 26.1 14.5 48 7.2 ESE 9 11 5 6 1008.8 1007.5 0.0
05/05:00am 26.3 25.9 14.1 47 7.3 ESE 9 11 5 6 1008.3 1007.0 0.0
05/04:30am 27.3 26.9 14.0 44 8.0 ESE 9 11 5 6 1008.3 1007.0 0.0
05/04:00am 28.5 28.7 14.7 43 8.4 ESE 7 9 4 5 1008.3 1007.0 0.0
05/03:30am 27.8 27.8 14.1 43 8.3 ESE 7 9 4 5 1008.4 1007.1 0.0
05/03:00am 27.0 26.7 12.6 41 8.5 ESE 6 7 3 4 1008.5 1007.2 0.0
05/02:30am 29.5 28.9 12.4 35 10.1 ESE 7 9 4 5 1008.7 1007.4 0.0
05/02:00am 29.7 28.9 13.0 35 10.0 ESE 9 11 5 6 1008.9 1007.6 0.0
05/01:30am 29.9 29.1 12.8 35 10.2 ESE 9 13 5 7 1009.1 1007.8 0.0
05/01:00am 30.5 29.5 12.4 33 10.8 ESE 9 11 5 6 1009.5 1008.2 0.0
05/12:30am 31.0 29.4 12.8 32 10.9 ESE 13 13 7 7 1009.5 1008.2 0.0
05/12:00am 31.2 29.9 12.5 31 11.2 ESE 11 13 6 7 1009.7 1008.4 0.0
 
Date/Time
EST
Temp
°C
App
Temp
°C
Dew
Point
Rel
Hum
%
Delta-T
°C
Wind Press
QNH
hPa
Press
MSL
hPa
Rain
since 9 am
mm
Dir
 
Spd
km/h
Gust
km/h
Spd
kts
Gust
kts
04/11:30pm 32.1 30.5 12.8 30 11.6 ESE 13 13 7 7 1009.9 1008.6 0.0
04/11:00pm 32.5 31.0 13.2 31 11.7 ESE 13 15 7 8 1010.0 1008.7 0.0
04/10:30pm 32.3 31.4 12.5 30 11.8 ESE 9 9 5 5 1009.9 1008.6 0.0
04/10:00pm 33.6 32.7 12.6 28 12.7 ESE 9 13 5 7 1009.7 1008.4 0.0
04/09:30pm 33.9 32.5 12.3 27 13.0 ESE 11 13 6 7 1009.4 1008.1 0.0
04/09:00pm 34.8 33.5 12.5 26 13.5 ESE 11 13 6 7 1009.1 1007.8 0.0
04/08:30pm 34.7 33.7 12.4 26 13.5 ESE 9 11 5 6 1008.7 1007.4 0.0
04/08:00pm 35.8 34.0 12.1 24 14.3 ESE 13 17 7 9 1008.2 1006.9 0.0
04/07:30pm 36.7 34.2 12.2 23 14.8 ESE 17 20 9 11 1007.7 1006.4 0.0
04/07:00pm 37.7 34.6 12.3 22 15.5 ESE 20 30 11 16 1007.5 1006.2 0.0
04/06:30pm 38.3 34.8 12.1 21 15.9 ESE 22 32 12 17 1007.5 1006.2 0.0
04/06:00pm 38.9 35.2 12.6 21 16.2 ESE 24 35 13 19 1007.2 1005.9 0.0
04/05:30pm 38.9 35.4 13.3 22 15.9 E 24 33 13 18 1007.3 1006.0 0.0
04/05:00pm 39.1 36.0 13.5 22 16.0 ESE 22 37 12 20 1007.3 1006.0 0.0
04/04:30pm 39.2 35.8 13.6 22 16.0 E 24 33 13 18 1007.3 1006.0 0.0
04/04:00pm 38.5 34.7 13.7 23 15.5 SE 26 39 14 21 1007.8 1006.5 0.0
04/03:30pm 38.6 36.2 14.4 24 15.2 ESE 20 33 11 18 1008.2 1006.9 0.0
04/03:00pm 38.2 37.2 14.7 24 14.9 SE 13 24 7 13 1008.3 1007.0 0.0
04/02:30pm 37.9 35.5 14.5 25 14.7 ENE 20 32 11 17 1008.7 1007.4 0.0
04/02:00pm 37.6 36.1 15.4 27 14.1 ENE 17 26 9 14 1009.3 1008.0 0.0
04/01:30pm 37.3 36.0 15.7 27 13.8 ENE 17 30 9 16 1009.8 1008.5 0.0
04/01:00pm 36.1 35.2 15.8 30 12.9 ESE 15 26 8 14 1010.2 1008.9 0.0
04/12:30pm 36.4 35.9 17.0 31 12.6 ENE 15 28 8 15 1010.7 1009.4 0.0
04/12:00pm 35.4 34.8 17.6 35 11.6 NNE 17 26 9 14 1011.5 1010.2 0.0
04/11:30am 35.2 36.4 19.1 38 10.7 NNE 11 24 6 13 1011.8 1010.5 0.0
04/11:00am 34.4 34.7 19.6 41 9.9 NNE 17 24 9 13 1012.2 1010.9 0.0
04/10:30am 33.2 34.1 20.0 45 8.8 N 15 20 8 11 1012.5 1011.2 0.0
04/10:00am 32.4 33.3 20.0 48 8.3 N 15 22 8 12 1012.7 1011.4 0.0
04/09:30am 31.9 32.7 19.8 48 8.0 NNE 15 20 8 11 1012.5 1011.2 0.0
04/09:00am 31.4 32.9 19.7 49 7.7 E 11 17 6 9 1012.3 1011.0 0.2
04/08:30am 31.0 32.5 19.7 51 7.5 E 11 17 6 9 1012.4 1011.1 0.2
04/08:00am 30.3 32.0 20.2 54 6.7 NNE 11 15 6 8 1012.1 1010.8 0.2
04/07:30am 28.3 30.7 20.1 61 5.4 NNE 7 9 4 5 1011.3 1010.0 0.2
04/07:00am 27.4 29.4 20.7 67 4.5 NNE 11 13 6 7 1010.7 1009.4 0.2
04/06:30am 26.6 28.9 20.7 70 3.9 NNE 9 13 5 7 1010.2 1008.9 0.2
04/06:00am 26.2 28.6 20.1 69 4.0 NNE 7 7 4 4 1009.7 1008.4 0.2
04/05:30am 26.9 29.7 20.5 68 4.2 NNE 6 7 3 4 1009.1 1007.8 0.2
04/05:00am 27.8 30.8 20.9 66 4.6 NNE 6 7 3 4 1008.8 1007.5 0.2
04/04:30am 28.2 31.0 21.5 67 4.5 NNE 9 11 5 6 1008.4 1007.1 0.2
04/04:00am 27.5 31.5 22.0 72 3.7 NNE 4 6 2 3 1008.2 1006.9 0.2
04/03:30am 27.6 31.2 22.1 72 3.7 NNE 6 7 3 4 1008.1 1006.8 0.2
04/03:00am 27.5 32.1 21.8 71 3.8 CALM 0 0 0 0 1008.2 1006.9 0.2
04/02:30am 27.9 32.3 21.4 67 4.4 CALM 0 0 0 0 1008.4 1007.1 0.2
04/02:00am 28.7 33.5 22.2 68 4.4 CALM 0 7 0 4 1008.9 1007.6 0.2
04/01:30am 29.0 33.7 22.0 66 4.8 CALM 0 0 0 0 1009.1 1007.8 0.2
04/01:00am 28.6 32.4 20.9 63 5.1 NNE 2 7 1 4 1009.2 1007.9 0.2
04/12:30am 30.5 33.2 21.3 58 6.2 NNE 9 9 5 5 1009.2 1007.9 0.2
04/12:00am 30.8 34.0 21.6 58 6.2 NNE 7 9 4 5 1009.3 1008.0 0.2
 
Date/Time
EST
Temp
°C
App
Temp
°C
Dew
Point
Rel
Hum
%
Delta-T
°C
Wind Press
QNH
hPa
Press
MSL
hPa
Rain
since 9 am
mm
Dir
 
Spd
km/h
Gust
km/h
Spd
kts
Gust
kts
03/11:30pm 30.7 35.0 21.2 57 6.4 CALM 0 0 0 0 1009.4 1008.1 0.2
03/11:00pm 31.6 34.8 21.7 55 6.7 NNE 7 9 4 5 1009.4 1008.1 0.2
03/10:30pm 31.6 35.0 22.0 56 6.6 NNE 7 9 4 5 1009.5 1008.2 0.2
03/10:00pm 30.6 34.7 20.8 56 6.6 CALM 0 0 0 0 1009.4 1008.1 0.2
03/09:30pm 32.2 35.1 21.1 52 7.5 NNE 7 9 4 5 1009.2 1007.9 0.2
03/09:00pm 32.5 34.8 20.7 49 8.0 NNE 9 11 5 6 1008.9 1007.6 0.2
03/08:30pm 33.4 36.0 21.2 48 8.3 NNE 9 13 5 7 1008.7 1007.4 0.2
03/08:00pm 34.0 36.7 20.7 45 9.0 NNE 7 9 4 5 1008.4 1007.1 0.2
03/07:30pm 34.6 37.0 20.9 44 9.3 NNE 9 13 5 7 1008.1 1006.8 0.2
03/07:00pm 35.1 37.6 21.0 43 9.6 NNE 9 13 5 7 1007.4 1006.1 0.2
03/06:30pm 35.5 37.4 21.4 44 9.6 NNE 13 17 7 9 1007.2 1005.9 0.2
03/06:00pm 36.1 39.1 21.9 43 9.8 NNE 9 17 5 9 1006.9 1005.6 0.2
03/05:30pm 36.0 38.5 21.8 43 9.8 NE 11 17 6 9 1006.6 1005.3 0.2
03/05:00pm 35.9 38.4 22.5 46 9.3 NNE 13 20 7 11 1006.9 1005.6 0.2
03/04:30pm 36.1 38.7 22.6 45 9.4 NNE 13 20 7 11 1007.2 1005.9 0.2
03/04:00pm 35.4 38.8 22.7 47 8.8 N 9 15 5 8 1007.2 1005.9 0.2
03/03:30pm 35.6 38.2 23.9 51 8.3 N 17 22 9 12 1007.4 1006.1 0.2
03/03:00pm 35.1 38.5 24.1 53 7.8 N 13 22 7 12 1008.0 1006.6 0.2
03/02:30pm 34.4 37.8 24.0 54 7.3 NNW 13 19 7 10 1008.5 1007.2 0.2
03/02:00pm 34.4 37.6 24.3 55 7.2 NW 15 22 8 12 1009.0 1007.7 0.2

Other Formats:

Comma delimited format used in spreadsheet applications
http://www.bom.gov.au/fwo/IDQ60801/IDQ60801.94335.axf

JavaScript Object Notation format (JSON) in row-major order
http://www.bom.gov.au/fwo/IDQ60801/IDQ60801.94335.json